KBMT/BMT METAR and TAF weather

Enter ICAO airport designator
Station Type Date Time Source
KBMT METAR 2021/09/28 16:35 UTC NOAA

KBMT 281635Z AUTO 03005KT 10SM TS SCT028 SCT044 OVC060 27/26 A2994 RMK AO2 LTG DSNT ALQDS T02660256


Station Type Date Time Source
KBMT Decoded METAR 2021/09/28 16:35 UTC NOAA

Station name not available
Sep 28, 2021 - 12:35 PM EDT / 2021.09.28 1635 UTC
Wind: from the NNE (030 degrees) at 6 MPH (5 KT):0
Visibility: 10 mile(s):0
Sky conditions: overcast
Weather: thunder; Lightning observed
Temperature: 79.9 F (26.6 C)
Dew Point: 78.1 F (25.6 C)
Relative Humidity: 94%
Pressure (altimeter): 29.94 in. Hg (1013 hPa)
ob: KBMT 281635Z AUTO 03005KT 10SM TS SCT028 SCT044 OVC060 27/26 A2994 RMK AO2 LTG DSNT ALQDS T02660256
cycle: 16

Station Type Date Time Source
KBMT TAF UTC NOAA

Error!

Example: see airport list